Date,TemperatureHighF,TemperatureAvgF,TemperatureLowF,DewpointHighF,DewpointAvgF,DewpointLowF,HumidityHigh,HumidityAvg,HumidityLow,PressureMaxIn,PressureMinIn,WindSpeedMaxMPH,WindSpeedAvgMPH,GustSpeedMaxMPH,PrecipitationSumIn
2013-10-1,80.6,69.2,59.9,69.0,65.2,59.0,98,88,66,29.97,29.88,11,3,14,0.00
2013-10-2,84.4,71.7,65.0,71.0,67.5,65.0,99,88,58,30.03,29.91,5,1,7,0.01
2013-10-3,83.4,69.4,64.8,72.0,64.2,-99.9,98,88,68,29.92,29.78,9,-19,27,0.49
2013-10-4,87.3,74.7,64.8,73.0,68.8,64.0,99,84,55,29.91,29.84,10,2,13,0.01
2013-10-5,73.9,67.8,55.0,71.0,64.8,50.0,96,90,79,29.88,29.77,11,4,16,0.02
2013-10-6,54.5,48.9,45.1,49.0,44.7,40.0,97,86,68,29.85,29.78,16,3,18,0.16
2013-10-7,70.8,57.0,45.5,52.0,48.1,45.0,98,75,44,30.09,29.85,9,2,11,0.00
2013-10-8,77.8,62.2,47.6,54.0,49.3,46.0,95,66,36,30.18,30.08,7,1,12,0.00
2013-10-9,73.9,59.4,47.6,53.0,49.5,46.0,95,72,41,30.18,30.08,7,1,10,0.00
2013-10-10,78.2,62.9,49.7,61.0,54.8,48.0,97,77,49,30.14,29.98,8,1,14,0.00
2013-10-11,79.5,65.7,54.2,62.0,57.1,53.0,98,76,47,30.01,29.85,13,2,18,0.00
2013-10-12,73.2,63.7,52.5,62.0,53.1,41.0,93,71,37,30.19,29.89,8,2,12,0.00
2013-10-13,69.7,55.0,42.9,46.0,39.1,32.0,91,60,28,30.39,30.20,10,1,11,0.00
2013-10-14,66.9,54.2,40.4,49.0,42.1,37.0,91,66,40,30.36,30.04,12,3,16,0.00
2013-10-15,68.9,59.8,48.7,62.0,54.0,43.0,97,82,63,30.03,29.81,11,3,17,0.13
2013-10-16,54.2,49.7,45.1,44.0,42.9,41.0,87,78,68,30.00,29.93,14,3,15,0.00
2013-10-17,62.7,52.4,45.7,47.0,43.6,40.0,96,75,43,29.98,29.86,10,3,17,0.08
2013-10-18,55.7,47.4,41.6,43.0,40.6,37.0,95,79,54,30.03,29.88,8,2,12,0.06
2013-10-19,56.7,46.3,36.6,41.0,37.8,34.0,96,75,42,29.99,29.86,13,4,21,0.03
2013-10-20,71.7,55.1,39.7,45.0,41.0,37.0,92,63,35,29.90,29.75,15,5,21,0.00
2013-10-21,58.6,46.4,34.2,45.0,34.9,27.0,86,66,41,30.03,29.85,8,2,15,0.00
2013-10-22,46.6,38.9,32.4,45.0,36.9,30.0,95,92,80,30.03,29.81,9,2,13,0.19
2013-10-23,46.3,38.3,30.5,37.0,32.3,29.0,95,80,51,30.13,30.00,9,2,12,0.00
2013-10-24,40.8,35.9,26.6,36.0,27.7,24.0,92,74,52,30.40,30.11,5,2,13,0.00
2013-10-25,54.2,39.8,25.2,35.0,27.6,24.0,96,66,34,30.49,30.16,9,3,15,0.00
2013-10-26,58.6,46.7,34.0,39.0,31.3,27.0,86,57,33,30.15,30.00,13,4,19,0.00
2013-10-27,58.3,43.4,29.7,34.0,30.2,27.0,90,63,36,30.13,29.99,9,2,14,0.00
2013-10-28,65.0,49.4,34.2,38.0,33.9,30.0,86,59,33,30.27,30.05,8,2,12,0.00
2013-10-29,54.4,47.9,41.5,53.0,44.2,39.0,98,87,69,30.27,30.08,12,5,14,0.02
2013-10-30,64.7,58.8,53.2,65.0,58.6,53.0,100,99,98,30.07,29.76,10,3,19,0.84
2013-10-31,64.1,56.2,45.8,64.0,55.6,45.0,99,98,95,29.75,29.30,14,4,18,1.32